Time;durP1;ratioP1;P1;durP2;ratioP2;P2;SDS_P1;SDS_P2;PMS_P1;PMS_P2;Temp;Humidity;BMP_temperature;BMP_pressure;BME280_temperature;BME280_humidity;BME280_pressure;Samples;Min_cycle;Max_cycle;Signal;HPM_P1;HPM_P2
2022/06/12 00:02:55;;;;;;;19.90;10.70;;;;;;;12.23;79.53;99427.36;2236882;79;20912;-78
2022/06/12 00:05:56;;;;;;;16.07;10.00;;;;;;;12.19;79.50;99424.25;2236807;79;20927;-79
2022/06/12 00:08:56;;;;;;;15.20;9.83;;;;;;;12.13;79.33;99419.77;2236671;79;20928;-79
2022/06/12 00:11:56;;;;;;;16.97;11.33;;;;;;;12.10;79.52;99419.73;2237033;79;20928;-79
2022/06/12 00:14:56;;;;;;;14.60;9.38;;;;;;;12.07;79.68;99423.18;2236796;79;21300;-79
2022/06/12 00:17:57;;;;;;;14.43;9.68;;;;;;;12.06;79.65;99427.08;2236790;79;21000;-79
2022/06/12 00:21:12;;;;;;;14.68;10.00;;;;;;;12.00;79.64;99423.95;2236643;79;20959;-79
2022/06/12 00:24:13;;;;;;;11.48;9.25;;;;;;;11.96;79.77;99431.30;2236670;79;20919;-79
2022/06/12 00:27:14;;;;;;;14.25;9.33;;;;;;;11.90;79.53;99423.78;2236640;79;21331;-79
2022/06/12 00:30:13;;;;;;;15.10;9.35;;;;;;;11.84;79.60;99423.69;2236501;79;20971;-79
2022/06/12 00:33:14;;;;;;;11.40;9.00;;;;;;;11.79;79.62;99428.84;2236710;79;20884;-79
2022/06/12 00:36:14;;;;;;;12.20;8.83;;;;;;;11.77;79.68;99430.52;2236751;79;20924;-79
2022/06/12 00:39:15;;;;;;;11.95;9.15;;;;;;;11.73;79.83;99425.66;2236736;79;20956;-78
2022/06/12 00:42:15;;;;;;;10.98;9.03;;;;;;;11.72;79.81;99429.56;2236632;80;20983;-79
2022/06/12 00:45:15;;;;;;;11.87;8.50;;;;;;;11.68;79.62;99430.37;2236440;79;21014;-79
2022/06/12 00:48:17;;;;;;;14.75;9.65;;;;;;;11.60;79.61;99428.05;2236459;79;20959;-79
2022/06/12 00:51:16;;;;;;;12.80;9.37;;;;;;;11.54;79.90;99425.33;2236501;79;20935;-79
2022/06/12 00:54:17;;;;;;;11.73;8.93;;;;;;;11.52;80.05;99423.12;2236697;79;20987;-79
2022/06/12 00:57:17;;;;;;;12.23;8.80;;;;;;;11.52;80.25;99421.81;2236509;79;21275;-79
2022/06/12 01:00:17;;;;;;;14.10;10.10;;;;;;;11.52;80.15;99415.27;2236626;79;20964;-79
2022/06/12 01:03:18;;;;;;;16.27;9.83;;;;;;;11.46;80.00;99416.05;2236749;79;20960;-79
2022/06/12 01:06:33;;;;;;;15.13;10.10;;;;;;;11.44;80.07;99413.41;2236537;79;20972;-79
2022/06/12 01:09:36;;;;;;;15.57;9.93;;;;;;;11.42;80.08;99412.50;2236597;79;20919;-79
2022/06/12 01:12:34;;;;;;;14.23;9.57;;;;;;;11.37;80.01;99410.23;2236737;79;20881;-79
2022/06/12 01:15:35;;;;;;;14.30;9.63;;;;;;;11.35;80.09;99410.63;2236672;79;21379;-79
2022/06/12 01:18:35;;;;;;;12.53;9.17;;;;;;;11.34;80.12;99405.38;2236980;79;20888;-79
2022/06/12 01:21:35;;;;;;;12.83;9.70;;;;;;;11.30;80.19;99405.75;2236756;79;20952;-79
2022/06/12 01:24:36;;;;;;;13.13;9.30;;;;;;;11.28;80.25;99413.99;2236620;79;20948;-79
2022/06/12 01:27:36;;;;;;;12.13;9.50;;;;;;;11.23;80.17;99402.55;2236808;79;20967;-79
2022/06/12 01:30:37;;;;;;;10.77;8.90;;;;;;;11.21;80.20;99399.45;2236606;79;20924;-79
2022/06/12 01:33:37;;;;;;;10.47;8.87;;;;;;;11.16;80.15;99400.25;2236533;78;20991;-79
2022/06/12 01:36:37;;;;;;;11.87;8.70;;;;;;;11.15;80.25;99399.80;2236913;79;20948;-79
2022/06/12 01:39:38;;;;;;;13.03;8.63;;;;;;;11.12;80.24;99398.86;2235794;79;21370;-79
2022/06/12 01:42:38;;;;;;;13.10;8.60;;;;;;;11.05;79.95;99393.06;2236575;79;21025;-79
2022/06/12 01:45:39;;;;;;;10.37;8.83;;;;;;;11.03;80.25;99392.16;2236605;79;20975;-79
2022/06/12 01:48:39;;;;;;;10.67;8.67;;;;;;;11.02;80.23;99395.62;2224664;79;21336;-79
2022/06/12 01:51:39;;;;;;;13.53;8.90;;;;;;;10.98;80.30;99393.38;2209708;79;20960;-79
2022/06/12 01:54:40;;;;;;;9.03;8.10;;;;;;;10.98;80.57;99389.88;2209531;81;20961;-79
2022/06/12 01:57:40;;;;;;;10.33;8.43;;;;;;;10.98;80.51;99389.88;2209543;79;20961;-79
2022/06/12 02:00:41;;;;;;;11.57;8.53;;;;;;;10.96;80.50;99384.63;2209459;79;20944;-79
2022/06/12 02:03:43;;;;;;;14.00;8.53;;;;;;;10.95;80.55;99384.17;2209362;79;20920;-79
2022/06/12 02:06:41;;;;;;;10.23;8.07;;;;;;;10.92;80.61;99384.12;2209384;79;21357;-79
2022/06/12 02:09:42;;;;;;;11.80;8.30;;;;;;;10.90;80.40;99381.91;2208997;79;21003;-79
2022/06/12 02:16:02;;;;;;;12.70;8.60;;;;;;;10.84;80.20;99384.39;2209261;79;20980;-79
2022/06/12 02:19:02;;;;;;;10.83;9.47;;;;;;;10.80;80.18;99383.45;2209330;79;20929;-79
2022/06/12 02:22:02;;;;;;;14.53;9.20;;;;;;;10.79;80.23;99384.31;2209412;79;21323;-80
2022/06/12 02:25:03;;;;;;;16.17;9.17;;;;;;;10.79;80.22;99378.20;2209549;79;20952;-79
2022/06/12 02:28:03;;;;;;;12.73;9.00;;;;;;;10.77;80.23;99384.70;2209424;79;21008;-79
2022/06/12 02:31:03;;;;;;;13.40;9.20;;;;;;;10.73;80.21;99378.97;2209398;79;21276;-79
2022/06/12 02:34:04;;;;;;;13.50;9.87;;;;;;;10.70;80.28;99390.66;2209593;79;20972;-80
2022/06/12 02:37:04;;;;;;;13.00;10.50;;;;;;;10.73;80.57;99389.41;2209952;79;20913;-79
2022/06/12 02:40:05;;;;;;;15.57;11.60;;;;;;;10.83;80.97;99403.10;2209439;79;21400;-79
2022/06/12 02:43:05;;;;;;;12.93;9.60;;;;;;;10.94;82.05;99397.20;2209674;81;20922;-79
2022/06/12 02:46:05;;;;;;;13.03;10.07;;;;;;;10.92;80.43;99401.52;2209731;81;20956;-79
2022/06/12 02:49:06;;;;;;;13.27;10.03;;;;;;;10.83;80.26;99410.94;2209735;79;20969;-79
2022/06/12 02:52:06;;;;;;;13.37;9.17;;;;;;;10.82;80.55;99413.52;2209688;79;21280;-80
2022/06/12 02:55:06;;;;;;;12.07;9.83;;;;;;;10.85;80.37;99414.46;2209664;79;20961;-80
2022/06/12 02:58:07;;;;;;;13.87;10.23;;;;;;;10.81;80.18;99416.55;2209370;79;20944;-80
2022/06/12 03:01:07;;;;;;;16.70;10.80;;;;;;;10.84;80.38;99411.39;2209592;79;20936;-79
2022/06/12 03:04:08;;;;;;;15.43;10.13;;;;;;;10.90;80.48;99413.25;2209249;79;21387;-79
2022/06/12 03:07:08;;;;;;;16.57;10.23;;;;;;;10.95;80.45;99410.72;2209214;79;20933;-79
2022/06/12 03:10:08;;;;;;;12.20;10.10;;;;;;;10.97;80.75;99409.90;2209584;79;20933;-79
2022/06/12 03:13:09;;;;;;;14.73;9.67;;;;;;;11.02;80.72;99412.17;2209570;79;20953;-79
2022/06/12 03:16:09;;;;;;;15.10;9.30;;;;;;;11.07;80.55;99414.87;2209476;81;21360;-79
2022/06/12 03:19:10;;;;;;;11.47;9.83;;;;;;;11.15;80.60;99418.51;2209783;79;20909;-79
2022/06/12 03:22:10;;;;;;;16.53;9.83;;;;;;;11.21;80.50;99413.39;2209758;79;20960;-79
2022/06/12 03:25:10;;;;;;;14.27;9.70;;;;;;;11.31;80.56;99416.66;2209598;79;20969;-79
2022/06/12 03:28:11;;;;;;;13.20;9.50;;;;;;;11.42;80.50;99415.55;2209680;79;20956;-79
2022/06/12 03:31:12;;;;;;;19.07;9.40;;;;;;;11.48;80.24;99415.65;2209536;81;20882;-79
2022/06/12 03:34:13;;;;;;;10.77;9.30;;;;;;;11.52;80.10;99412.66;2209562;79;20952;-79
2022/06/12 03:37:12;;;;;;;11.77;9.33;;;;;;;11.57;80.24;99414.92;2209785;79;20940;-79
2022/06/12 03:40:12;;;;;;;13.13;9.20;;;;;;;11.68;80.49;99412.06;2209614;79;20969;-79
2022/06/12 03:43:13;;;;;;;10.23;9.13;;;;;;;11.76;80.36;99413.94;2209510;79;20920;-79
2022/06/12 03:46:13;;;;;;;12.17;8.77;;;;;;;11.79;80.09;99417.07;2209628;79;20952;-79
2022/06/12 03:49:14;;;;;;;9.80;8.80;;;;;;;11.85;80.14;99414.55;2222566;79;20995;-79
2022/06/12 03:52:14;;;;;;;10.72;8.55;;;;;;;11.94;80.37;99415.13;2236583;79;20982;-79
2022/06/12 03:55:14;;;;;;;12.68;8.80;;;;;;;12.02;80.61;99415.69;2236593;79;20916;-79
2022/06/12 03:58:16;;;;;;;14.03;9.53;;;;;;;12.17;80.81;99412.88;2236795;79;21002;-79
2022/06/12 04:01:15;;;;;;;11.22;9.15;;;;;;;12.35;80.81;99425.80;2236793;79;21006;-79
2022/06/12 04:04:16;;;;;;;13.70;9.73;;;;;;;12.45;80.38;99418.95;2236560;79;21022;-79
2022/06/12 04:07:16;;;;;;;12.23;9.45;;;;;;;12.54;80.30;99417.77;2236846;79;20912;-79
2022/06/12 04:10:16;;;;;;;14.15;9.73;;;;;;;12.71;80.33;99417.55;2236931;80;21064;-79
2022/06/12 04:13:18;;;;;;;11.20;9.05;;;;;;;12.93;80.43;99416.48;2236807;79;21299;-79
2022/06/12 04:16:17;;;;;;;9.53;8.55;;;;;;;13.13;80.35;99416.74;2236403;79;20956;-79
2022/06/12 04:19:18;;;;;;;10.98;8.30;;;;;;;13.35;80.18;99414.38;2236948;79;20920;-79
2022/06/12 04:22:18;;;;;;;9.90;8.43;;;;;;;13.46;79.85;99409.67;2236937;79;20940;-80
2022/06/12 04:25:19;;;;;;;11.28;8.35;;;;;;;13.64;79.97;99412.02;2236933;79;21338;-80
2022/06/12 04:28:21;;;;;;;10.00;8.60;;;;;;;13.82;79.98;99411.30;2213915;80;21030;-79
2022/06/12 04:31:21;;;;;;;10.10;9.03;;;;;;;14.07;80.10;99409.77;2236059;79;20919;-79
2022/06/12 04:34:22;;;;;;;11.20;8.98;;;;;;;14.32;80.03;99410.79;2236077;79;20943;-80
2022/06/12 04:37:22;;;;;;;11.25;9.45;;;;;;;14.65;80.07;99412.31;2236111;79;20982;-80
2022/06/12 04:40:22;;;;;;;14.75;10.30;;;;;;;14.98;79.57;99410.28;2236268;79;21022;-79
2022/06/12 04:43:23;;;;;;;12.68;10.38;;;;;;;15.33;79.48;99409.48;2236990;79;20971;-79
2022/06/12 04:46:23;;;;;;;14.05;10.55;;;;;;;15.68;78.90;99413.97;2236904;79;20924;-78
2022/06/12 04:49:24;;;;;;;13.25;10.05;;;;;;;16.04;78.57;99410.00;2225015;79;21000;-79
2022/06/12 04:52:24;;;;;;;11.73;10.08;;;;;;;16.37;78.39;99407.75;2209653;79;21402;-79
2022/06/12 04:55:24;;;;;;;15.18;11.08;;;;;;;16.72;77.66;99413.41;2209172;79;20929;-80
2022/06/12 04:58:25;;;;;;;14.63;10.48;;;;;;;17.03;76.64;99408.88;2209230;79;20988;-80
2022/06/12 05:01:25;;;;;;;13.13;11.50;;;;;;;17.34;76.45;99409.57;2209957;81;21398;-79
2022/06/12 05:04:26;;;;;;;20.65;12.30;;;;;;;17.62;75.74;99404.56;2209281;79;20969;-80
2022/06/12 05:07:27;;;;;;;12.28;10.68;;;;;;;17.92;74.46;99403.91;2209656;79;20889;-81
2022/06/12 05:10:26;;;;;;;15.70;11.43;;;;;;;18.23;72.72;99400.56;2209784;79;20925;-80
2022/06/12 05:13:27;;;;;;;13.95;10.98;;;;;;;18.50;72.91;99407.33;2209782;81;20956;-80
2022/06/12 05:16:28;;;;;;;18.17;12.63;;;;;;;18.78;71.32;99401.72;2209154;79;21355;-80
2022/06/12 05:19:28;;;;;;;16.27;12.40;;;;;;;18.97;69.95;99410.30;2207902;79;21008;-80
2022/06/12 05:22:28;;;;;;;15.45;11.97;;;;;;;19.15;68.57;99407.89;2208352;79;20948;-80
2022/06/12 05:25:30;;;;;;;15.95;11.95;;;;;;;19.26;68.35;99415.67;2207983;79;21308;-80
2022/06/12 05:28:29;;;;;;;15.25;11.57;;;;;;;19.39;68.06;99411.50;2208379;79;20960;-80
2022/06/12 05:31:29;;;;;;;13.60;11.28;;;;;;;19.50;67.21;99418.41;2208378;79;21004;-79
2022/06/12 05:34:30;;;;;;;15.70;11.00;;;;;;;19.51;66.70;99414.87;2209871;79;21332;-79
2022/06/12 05:37:30;;;;;;;13.80;10.15;;;;;;;19.57;66.76;99420.98;2209820;79;20964;-79
2022/06/12 05:40:31;;;;;;;11.38;9.25;;;;;;;19.66;66.40;99416.86;2209812;79;20972;-79
2022/06/12 05:43:31;;;;;;;11.50;8.83;;;;;;;19.75;66.14;99419.81;2209464;81;20945;-79
2022/06/12 05:46:31;;;;;;;10.85;7.85;;;;;;;19.89;66.02;99423.56;2209787;79;21268;-79
2022/06/12 05:49:32;;;;;;;10.48;7.50;;;;;;;20.03;65.70;99423.78;2210028;79;20976;-79
2022/06/12 05:52:32;;;;;;;9.40;7.10;;;;;;;20.29;65.17;99422.00;2210120;79;20983;-81
2022/06/12 05:55:33;;;;;;;8.43;6.53;;;;;;;20.46;64.64;99427.47;2210073;79;21356;-80
2022/06/12 05:58:35;;;;;;;6.95;6.22;;;;;;;20.56;63.64;99425.06;2209949;81;20975;-80
2022/06/12 06:01:33;;;;;;;7.40;6.10;;;;;;;20.75;64.63;99421.14;2210070;81;20965;-80
2022/06/12 06:04:34;;;;;;;9.25;6.10;;;;;;;21.35;64.40;99414.63;2209767;79;20960;-79
2022/06/12 06:07:34;;;;;;;6.72;6.12;;;;;;;22.01;63.08;99411.28;2209891;79;20874;-79
2022/06/12 06:10:35;;;;;;;16.05;5.90;;;;;;;22.44;61.17;99408.39;2209791;79;20928;-79
2022/06/12 06:13:35;;;;;;;9.03;7.00;;;;;;;22.60;59.87;99407.09;2209855;79;20965;-79
2022/06/12 06:16:35;;;;;;;8.08;6.30;;;;;;;22.73;59.05;99396.97;2209844;79;20981;-79
2022/06/12 06:19:36;;;;;;;7.47;5.53;;;;;;;23.16;58.93;99404.14;2209660;79;20932;-79
2022/06/12 06:22:36;;;;;;;9.38;5.47;;;;;;;23.93;56.69;99406.63;2209955;79;20952;-79
2022/06/12 06:25:37;;;;;;;6.37;5.17;;;;;;;24.20;55.98;99407.95;2209657;79;21300;-80
2022/06/12 06:28:37;;;;;;;6.87;4.22;;;;;;;24.78;54.21;99404.13;2209737;79;20917;-79
2022/06/12 06:31:37;;;;;;;5.90;4.58;;;;;;;24.87;52.53;99411.80;2209474;79;20913;-79
2022/06/12 06:34:38;;;;;;;4.83;4.00;;;;;;;24.89;52.58;99406.39;2209806;79;21096;-80
2022/06/12 06:37:38;;;;;;;6.87;4.30;;;;;;;24.99;51.13;99415.84;2209618;79;20985;-79
2022/06/12 06:40:39;;;;;;;5.35;3.47;;;;;;;25.18;51.33;99418.71;2209562;79;20964;-79
2022/06/12 06:46:58;;;;;;;7.12;4.03;;;;;;;25.12;49.11;99421.13;2208984;79;20973;-80
2022/06/12 06:49:58;;;;;;;4.37;3.98;;;;;;;24.81;48.17;99424.50;2220031;79;21335;-79
2022/06/12 06:52:59;;;;;;;4.65;3.20;;;;;;;24.57;48.93;99420.46;2230467;79;20921;-79
2022/06/12 06:55:59;;;;;;;6.70;5.90;;;;;;;24.64;49.31;99421.98;2233617;79;20923;-78
2022/06/12 06:58:59;;;;;;;6.33;5.70;;;;;;;24.53;49.32;99412.16;2237130;80;20967;-79
2022/06/12 07:02:00;;;;;;;10.45;9.33;;;;;;;24.78;48.71;99410.80;2236889;80;20943;-78
2022/06/12 07:05:00;;;;;;;4.70;3.50;;;;;;;25.28;48.95;99410.28;2236573;80;20985;-79
2022/06/12 07:08:01;;;;;;;4.20;2.98;;;;;;;25.54;47.21;99408.38;2236813;79;20947;-78
2022/06/12 07:11:01;;;;;;;5.58;2.30;;;;;;;25.65;46.05;99413.73;2236704;79;20968;-78
2022/06/12 07:14:01;;;;;;;3.37;2.98;;;;;;;25.44;45.19;99413.69;2236638;79;20927;-78
2022/06/12 07:17:02;;;;;;;2.35;1.72;;;;;;;25.38;45.70;99407.66;2236694;79;20940;-79
2022/06/12 07:20:02;;;;;;;3.12;2.20;;;;;;;25.30;40.53;99408.88;2236663;79;20992;-78
2022/06/12 07:23:03;;;;;;;4.10;2.58;;;;;;;25.11;41.90;99414.03;2236759;79;20936;-78
2022/06/12 07:26:04;;;;;;;3.92;2.87;;;;;;;25.34;42.52;99402.02;2236904;79;21342;-79
2022/06/12 07:29:04;;;;;;;4.25;2.58;;;;;;;25.60;43.39;99405.45;2236693;79;20951;-78
2022/06/12 07:32:05;;;;;;;3.58;2.30;;;;;;;25.74;42.81;99397.78;2236575;79;20956;-79
2022/06/12 07:35:05;;;;;;;3.02;2.15;;;;;;;25.93;42.35;99395.20;2236888;79;20968;-79
2022/06/12 07:38:05;;;;;;;3.02;2.40;;;;;;;25.90;40.10;99400.22;2236983;80;21382;-78
2022/06/12 07:41:05;;;;;;;3.22;2.60;;;;;;;25.69;39.84;99401.11;2236787;80;20955;-79
2022/06/12 07:44:05;;;;;;;2.80;2.50;;;;;;;25.72;39.91;99406.33;2236917;79;20916;-79
2022/06/12 07:47:06;;;;;;;4.42;2.72;;;;;;;25.69;41.26;99400.64;2236779;79;21267;-78
2022/06/12 07:50:06;;;;;;;4.92;2.45;;;;;;;26.01;41.51;99407.36;2236804;78;20995;-79
2022/06/12 07:53:08;;;;;;;2.75;2.05;;;;;;;26.54;41.14;99404.67;2236958;79;20980;-78
2022/06/12 07:56:07;;;;;;;3.87;2.20;;;;;;;26.60;39.39;99404.40;2236659;79;21311;-80
2022/06/12 07:59:08;;;;;;;3.62;2.10;;;;;;;26.81;40.12;99397.20;2237018;79;20979;-79
2022/06/12 08:02:08;;;;;;;2.50;1.80;;;;;;;27.01;38.42;99399.91;2236345;79;20967;-80
2022/06/12 08:05:08;;;;;;;3.87;1.87;;;;;;;26.97;37.67;99398.27;2236067;79;21315;-80
2022/06/12 08:08:09;;;;;;;2.92;1.98;;;;;;;26.94;38.33;99399.28;2236453;80;20916;-80
2022/06/12 08:11:09;;;;;;;2.58;1.82;;;;;;;27.24;38.28;99397.02;2236787;79;20868;-80
2022/06/12 08:14:10;;;;;;;2.60;1.90;;;;;;;27.62;37.39;99390.30;2236592;79;20920;-80
2022/06/12 08:17:10;;;;;;;3.22;1.95;;;;;;;27.74;37.18;99388.36;2236549;79;20957;-80
2022/06/12 08:20:25;;;;;;;2.52;1.90;;;;;;;27.62;36.42;99386.28;2236609;79;20952;-79
2022/06/12 08:23:26;;;;;;;3.60;2.10;;;;;;;27.56;36.88;99390.10;2236674;79;20928;-80
2022/06/12 08:26:26;;;;;;;3.10;1.92;;;;;;;27.59;36.31;99381.04;2236646;80;20912;-80
2022/06/12 08:29:27;;;;;;;5.12;2.02;;;;;;;27.78;36.19;99379.72;2236596;79;20877;-80
2022/06/12 08:32:27;;;;;;;2.77;1.80;;;;;;;28.12;36.02;99378.41;2236555;79;20928;-79
2022/06/12 08:35:27;;;;;;;3.12;1.92;;;;;;;28.42;36.20;99375.98;2236321;79;21351;-79
2022/06/12 08:38:29;;;;;;;5.30;1.90;;;;;;;28.67;35.16;99380.08;2236062;80;21077;-80
2022/06/12 08:41:30;;;;;;;3.77;2.08;;;;;;;28.71;35.05;99378.48;2236031;79;21386;-80
2022/06/12 08:44:29;;;;;;;3.70;1.70;;;;;;;28.73;34.09;99378.41;2236317;79;20984;-80
2022/06/12 08:47:30;;;;;;;4.50;2.17;;;;;;;28.77;34.97;99378.16;2236496;79;20888;-79
2022/06/12 08:50:30;;;;;;;2.47;1.77;;;;;;;29.04;34.58;99371.78;2222192;80;20965;-80
2022/06/12 08:53:31;;;;;;;2.37;1.62;;;;;;;29.23;33.72;99380.17;2209490;79;20992;-80
2022/06/12 08:56:31;;;;;;;4.67;1.70;;;;;;;28.94;33.35;99378.61;2209562;79;20948;-81
2022/06/12 08:59:34;;;;;;;2.75;1.80;;;;;;;28.69;34.10;99372.80;2209081;79;20925;-80
2022/06/12 09:02:32;;;;;;;4.05;1.60;;;;;;;28.80;33.42;99372.62;2209307;79;20977;-80
2022/06/12 09:05:33;;;;;;;2.60;1.95;;;;;;;28.90;33.92;99372.16;2209062;79;21399;-80
2022/06/12 09:08:33;;;;;;;2.52;1.92;;;;;;;29.13;33.85;99359.66;2209278;79;20996;-80
2022/06/12 09:11:34;;;;;;;4.53;1.75;;;;;;;29.31;33.20;99367.16;2209612;79;20979;-80
2022/06/12 09:14:34;;;;;;;2.77;1.87;;;;;;;29.09;32.24;99367.50;2209102;79;20901;-80
2022/06/12 09:17:34;;;;;;;3.17;1.98;;;;;;;28.54;32.97;99357.88;2209341;79;21316;-80
2022/06/12 09:20:35;;;;;;;3.85;1.80;;;;;;;28.04;33.94;99361.83;2209066;79;20952;-80
2022/06/12 09:23:37;;;;;;;2.67;2.10;;;;;;;28.35;34.30;99363.83;2209372;79;20913;-80
2022/06/12 09:26:36;;;;;;;2.72;2.20;;;;;;;28.59;34.23;99354.94;2209445;79;20905;-79
2022/06/12 09:29:36;;;;;;;3.08;2.00;;;;;;;28.58;32.93;99353.68;2210811;79;20933;-79
2022/06/12 09:32:37;;;;;;;4.03;2.00;;;;;;;27.73;33.26;99353.09;2210145;79;21012;-80
2022/06/12 09:35:37;;;;;;;4.00;2.25;;;;;;;27.26;34.54;99352.25;2209623;79;21027;-80
2022/06/12 09:38:37;;;;;;;3.52;2.15;;;;;;;27.47;35.62;99340.08;2209696;79;20907;-80
2022/06/12 09:41:38;;;;;;;6.35;2.35;;;;;;;28.04;34.98;99337.69;2209480;79;21296;-80
2022/06/12 09:44:38;;;;;;;6.28;2.20;;;;;;;28.49;33.89;99335.77;2209186;79;20925;-80
2022/06/12 09:47:38;;;;;;;3.62;2.37;;;;;;;28.71;33.45;99323.90;2209206;79;20952;-80
2022/06/12 09:50:39;;;;;;;3.98;2.22;;;;;;;28.41;33.60;99324.57;2209288;79;21045;-80
2022/06/12 09:53:39;;;;;;;2.95;2.17;;;;;;;28.46;34.27;99317.14;2209325;79;21301;-80
2022/06/12 09:56:40;;;;;;;2.90;1.77;;;;;;;28.64;32.68;99315.30;2209545;79;20921;-80
2022/06/12 09:59:40;;;;;;;3.83;1.90;;;;;;;28.86;33.48;99312.34;2209382;79;20889;-80
2022/06/12 10:02:40;;;;;;;2.98;2.08;;;;;;;29.09;32.48;99308.36;2209495;79;21323;-80
2022/06/12 10:05:41;;;;;;;2.98;2.10;;;;;;;29.16;32.45;99305.24;2208672;79;21016;-79
2022/06/12 10:08:41;;;;;;;2.80;2.00;;;;;;;29.44;31.92;99302.34;2209243;79;20952;-80
2022/06/12 10:11:42;;;;;;;6.45;1.98;;;;;;;29.70;32.01;99297.68;2209051;79;20945;-79
2022/06/12 10:14:42;;;;;;;2.83;2.10;;;;;;;30.02;31.35;99289.53;2209158;81;20874;-79
2022/06/12 10:17:42;;;;;;;2.95;2.10;;;;;;;30.23;31.83;99292.73;2209537;79;20957;-80
2022/06/12 10:20:43;;;;;;;2.85;2.10;;;;;;;30.24;31.78;99293.13;2209419;79;21251;-81
2022/06/12 10:23:43;;;;;;;2.72;1.98;;;;;;;30.14;31.39;99292.83;2208857;81;20945;-80
2022/06/12 10:26:44;;;;;;;2.47;1.70;;;;;;;30.10;31.71;99284.55;2208974;79;20925;-80
2022/06/12 10:29:44;;;;;;;2.00;1.80;;;;;;;30.08;30.98;99287.34;2209151;79;20940;-80
2022/06/12 10:32:44;;;;;;;3.50;2.40;;;;;;;29.97;30.78;99279.02;2209347;79;20917;-80
2022/06/12 10:35:45;;;;;;;4.15;2.17;;;;;;;29.97;30.78;99279.02;2209246;79;21470;-80
2022/06/12 10:38:45;;;;;;;2.95;2.17;;;;;;;29.32;31.61;99267.59;2209135;79;21276;-80
2022/06/12 10:41:46;;;;;;;3.02;2.10;;;;;;;28.98;32.69;99267.80;2209014;81;20999;-80
2022/06/12 10:44:46;;;;;;;3.58;2.10;;;;;;;29.18;32.91;99268.39;2209406;81;20885;-80
2022/06/12 10:47:47;;;;;;;2.00;1.65;;;;;;;29.40;32.23;99267.14;2209362;79;21301;-79
2022/06/12 10:50:47;;;;;;;6.05;1.90;;;;;;;29.79;32.37;99263.98;2221332;80;21039;-80
2022/06/12 10:53:47;;;;;;;3.62;2.62;;;;;;;29.83;32.49;99256.59;2236189;79;20900;-81
2022/06/12 10:56:48;;;;;;;5.78;3.83;;;;;;;29.50;32.97;99266.19;2236701;79;20920;-82
2022/06/12 10:59:48;;;;;;;4.95;3.95;;;;;;;29.48;33.15;99264.94;2236898;79;20915;-82
2022/06/12 11:02:49;;;;;;;2.90;2.20;;;;;;;29.58;33.41;99263.91;2236932;79;20920;-82
2022/06/12 11:05:49;;;;;;;2.25;2.12;;;;;;;29.61;32.36;99260.56;2236738;78;20967;-80
2022/06/12 11:08:49;;;;;;;3.72;2.87;;;;;;;29.57;32.24;99256.80;2236604;79;20908;-81
2022/06/12 11:11:50;;;;;;;3.12;2.90;;;;;;;29.89;32.25;99254.87;2236389;79;21339;-81
2022/06/12 11:14:50;;;;;;;7.45;3.62;;;;;;;30.65;31.79;99247.50;2236718;79;20910;-80
2022/06/12 11:17:51;;;;;;;4.92;2.05;;;;;;;30.65;31.79;99247.50;2237150;79;20923;-81
2022/06/12 11:20:51;;;;;;;5.05;2.35;;;;;;;30.71;30.88;99240.37;2236580;79;20955;-81
2022/06/12 11:23:52;;;;;;;3.70;2.00;;;;;;;30.35;31.11;99233.64;2236661;79;21366;-81
2022/06/12 11:26:52;;;;;;;4.08;2.27;;;;;;;29.75;31.27;99236.39;2236628;80;20868;-83
2022/06/12 11:29:52;;;;;;;3.22;2.20;;;;;;;28.98;31.57;99241.78;2236943;79;20920;-82
2022/06/12 11:32:54;;;;;;;6.35;2.35;;;;;;;28.46;32.85;99239.27;2237382;80;20884;-84
2022/06/12 11:35:53;;;;;;;3.15;2.20;;;;;;;28.19;33.36;99240.73;2236777;79;21276;-83
2022/06/12 11:38:53;;;;;;;4.12;2.50;;;;;;;27.81;33.75;99234.25;2236717;79;20979;-80
2022/06/12 11:41:54;;;;;;;2.70;2.47;;;;;;;28.01;34.39;99233.67;2236496;80;21011;-80
2022/06/12 11:44:54;;;;;;;234.47;150.53;;;;;;;28.65;34.17;99227.54;2236938;79;20927;-80
2022/06/12 11:47:55;;;;;;;3.50;2.20;;;;;;;28.67;32.57;99224.30;2236751;79;21315;-80
2022/06/12 11:50:56;;;;;;;4.25;2.27;;;;;;;28.49;33.36;99216.27;2236719;79;21011;-80
2022/06/12 11:53:55;;;;;;;6.85;3.42;;;;;;;28.17;34.45;99213.98;2236550;80;20928;-80
2022/06/12 11:56:56;;;;;;;6.28;2.30;;;;;;;28.06;34.60;99218.19;2236756;79;20920;-81
2022/06/12 11:59:56;;;;;;;2.45;2.10;;;;;;;28.42;33.81;99211.33;2236569;79;21017;-80
2022/06/12 12:02:57;;;;;;;3.80;2.35;;;;;;;28.83;33.04;99206.35;2236378;80;20984;-81
2022/06/12 12:05:57;;;;;;;3.80;2.40;;;;;;;28.89;32.49;99213.23;2236793;79;20899;-81
2022/06/12 12:08:57;;;;;;;4.80;3.20;;;;;;;28.93;32.41;99202.70;2236996;79;20919;-80
2022/06/12 12:11:58;;;;;;;3.08;2.40;;;;;;;28.66;32.81;99191.20;2236564;79;21011;-81
2022/06/12 12:14:58;;;;;;;4.42;2.47;;;;;;;28.66;32.81;99191.20;2235925;79;20998;-80
2022/06/12 12:17:59;;;;;;;5.17;3.42;;;;;;;28.70;32.54;99190.55;2236006;79;21311;-80
2022/06/12 12:20:59;;;;;;;7.65;5.70;;;;;;;28.90;32.29;99182.25;2235732;79;20959;-80
2022/06/12 12:23:59;;;;;;;2.65;2.40;;;;;;;29.22;32.57;99179.02;2234849;79;21089;-80
2022/06/12 12:27:00;;;;;;;2.62;2.42;;;;;;;29.40;32.10;99172.55;2234538;79;21437;-80
2022/06/12 12:30:00;;;;;;;13.78;9.28;;;;;;;29.74;32.34;99167.40;2235224;79;21034;-81
2022/06/12 12:33:01;;;;;;;4.53;2.30;;;;;;;30.04;31.98;99167.84;2235450;79;20897;-80
2022/06/12 12:42:39;;;;;;;4.05;2.30;;;;;;;30.05;31.22;99168.22;2237172;80;20937;-82
2022/06/12 12:45:39;;;;;;;4.95;2.00;;;;;;;29.98;31.54;99172.22;2237615;79;20950;-81
2022/06/12 12:48:40;;;;;;;2.60;2.00;;;;;;;29.77;31.46;99171.73;2236914;79;20936;-80
2022/06/12 12:51:41;;;;;;;12.50;7.97;;;;;;;29.71;31.85;99170.28;2236741;79;20972;-80
2022/06/12 12:54:41;;;;;;;4.12;2.30;;;;;;;29.74;31.60;99163.84;2237266;79;20959;-81
2022/06/12 12:57:42;;;;;;;5.75;2.58;;;;;;;29.40;31.20;99168.52;2237354;79;20904;-81
2022/06/12 13:00:42;;;;;;;3.02;2.40;;;;;;;29.46;31.47;99164.63;2237309;79;20948;-81
2022/06/12 13:03:42;;;;;;;2.27;1.92;;;;;;;30.06;31.38;99157.84;2237007;80;20976;-81
2022/06/12 13:06:43;;;;;;;28.57;19.30;;;;;;;30.06;31.38;99157.84;2237194;79;20947;-81
2022/06/12 13:09:43;;;;;;;2.60;2.05;;;;;;;30.10;30.77;99153.99;2237230;80;21255;-81
2022/06/12 13:12:44;;;;;;;2.05;1.85;;;;;;;30.21;30.69;99149.27;2237011;79;20970;-80
2022/06/12 13:15:44;;;;;;;36.10;20.23;;;;;;;30.21;31.66;99151.48;2236350;79;20979;-81
2022/06/12 13:18:44;;;;;;;3.77;2.00;;;;;;;30.37;31.52;99149.57;2237139;79;21358;-81
2022/06/12 13:21:45;;;;;;;4.12;2.15;;;;;;;30.49;31.16;99148.39;2237204;79;21381;-81
2022/06/12 13:24:45;;;;;;;4.55;2.40;;;;;;;30.09;31.43;99144.19;2237095;79;20912;-83
2022/06/12 13:27:46;;;;;;;2.60;2.30;;;;;;;29.56;31.36;99142.11;2236421;79;20951;-83
2022/06/12 13:30:46;;;;;;;5.35;2.60;;;;;;;29.25;31.84;99140.34;2235577;79;20974;-83
2022/06/12 13:33:46;;;;;;;3.62;2.37;;;;;;;28.96;32.02;99144.27;2235416;79;20962;-81
2022/06/12 13:36:47;;;;;;;2.50;2.12;;;;;;;29.00;33.04;99143.13;2235482;79;21042;-81
2022/06/12 13:39:47;;;;;;;2.33;1.95;;;;;;;28.91;32.32;99143.67;2236120;79;21030;-80
2022/06/12 13:42:48;;;;;;;3.37;2.15;;;;;;;29.05;33.42;99147.77;2236742;79;21284;-80
2022/06/12 13:45:49;;;;;;;4.30;2.17;;;;;;;29.22;32.91;99137.83;2237153;79;20896;-81
2022/06/12 13:48:48;;;;;;;2.55;2.20;;;;;;;29.07;32.27;99137.78;2237382;79;20955;-80
2022/06/12 13:51:49;;;;;;;2.52;2.00;;;;;;;29.15;31.90;99140.88;2226269;79;21492;-83
2022/06/12 13:54:49;;;;;;;4.80;2.00;;;;;;;29.23;32.32;99132.36;2210105;81;20980;-81
2022/06/12 13:57:50;;;;;;;3.95;2.05;;;;;;;29.37;32.19;99127.50;2210467;79;20909;-81
2022/06/12 14:00:50;;;;;;;1.98;1.60;;;;;;;29.48;31.45;99133.16;2210511;79;20917;-81
2022/06/12 14:03:50;;;;;;;2.08;1.60;;;;;;;29.49;31.23;99132.20;2210681;79;20913;-80
2022/06/12 14:06:51;;;;;;;2.22;2.00;;;;;;;29.48;31.31;99125.09;2209939;79;20988;-82
2022/06/12 14:09:51;;;;;;;2.72;1.85;;;;;;;29.29;31.64;99117.69;2209354;79;20947;-82
2022/06/12 14:12:52;;;;;;;5.10;2.77;;;;;;;29.28;32.38;99111.45;2209239;79;21011;-84
2022/06/12 14:15:52;;;;;;;4.12;2.40;;;;;;;29.34;31.66;99120.48;2208037;79;21350;-80
2022/06/12 14:18:52;;;;;;;3.72;2.02;;;;;;;29.32;32.22;99111.65;2207991;79;21323;-80